createdAt,value
2023-01-27T00:01:43.873Z,98590.00
2023-01-27T00:04:16.953Z,98580.00
2023-01-27T00:06:43.931Z,98594.00
2023-01-27T00:09:16.972Z,98603.00
2023-01-27T00:11:43.933Z,98603.00
2023-01-27T00:14:16.945Z,98599.00
2023-01-27T00:16:49.986Z,98580.00
2023-01-27T00:19:17.401Z,98598.00
2023-01-27T00:21:44.439Z,98608.00
2023-01-27T00:24:20.016Z,98594.00
2023-01-27T00:26:47.143Z,98588.00
2023-01-27T00:29:20.980Z,98599.00
2023-01-27T00:31:48.129Z,98579.00
2023-01-27T00:34:15.148Z,98582.00
2023-01-27T00:36:48.979Z,98591.00
2023-01-27T00:39:16.077Z,98595.00
2023-01-27T00:41:43.092Z,98596.00
2023-01-27T00:44:17.033Z,98587.00
2023-01-27T00:46:44.135Z,98594.00
2023-01-27T00:49:18.105Z,98592.00
2023-01-27T00:51:45.635Z,98592.00
2023-01-27T00:54:18.934Z,98595.00
2023-01-27T00:56:52.031Z,98581.00
2023-01-27T00:59:19.028Z,98599.00
2023-01-27T01:01:46.136Z,98588.00
2023-01-27T01:04:20.007Z,98584.00
2023-01-27T01:06:47.030Z,98584.00
2023-01-27T01:09:27.091Z,98581.00
2023-01-27T01:12:00.999Z,98601.00
2023-01-27T01:14:28.051Z,98604.00
2023-01-27T01:17:02.018Z,98604.00
2023-01-27T01:19:31.073Z,98584.00
2023-01-27T01:22:05.117Z,98603.00
2023-01-27T01:24:32.276Z,98600.00
2023-01-27T01:27:06.176Z,98597.00
2023-01-27T01:29:33.781Z,98597.00
2023-01-27T01:32:06.936Z,98591.00
2023-01-27T01:34:33.945Z,98598.00
2023-01-27T01:37:07.068Z,98566.00
2023-01-27T01:39:34.040Z,98600.00
2023-01-27T01:42:08.124Z,98593.00
2023-01-27T01:44:35.148Z,98602.00
2023-01-27T01:47:08.999Z,98581.00
2023-01-27T01:49:39.162Z,98588.00
2023-01-27T01:52:17.036Z,98599.00
2023-01-27T01:54:54.109Z,98594.00
2023-01-27T01:57:31.980Z,98587.00
2023-01-27T02:00:06.200Z,98573.00
2023-01-27T02:02:40.123Z,98591.00
2023-01-27T02:05:11.590Z,98582.00
2023-01-27T02:08:22.993Z,98569.00
2023-01-27T02:10:49.984Z,98577.00
2023-01-27T02:13:24.054Z,98570.00
2023-01-27T02:15:51.758Z,98585.00
2023-01-27T02:18:25.046Z,98575.00
2023-01-27T02:20:53.245Z,98583.00
2023-01-27T02:23:38.009Z,98564.00
2023-01-27T02:26:43.027Z,98580.00
2023-01-27T02:29:21.094Z,98577.00
2023-01-27T02:31:48.155Z,98563.00
2023-01-27T02:34:25.084Z,98582.00
2023-01-27T02:36:55.416Z,98559.00
2023-01-27T02:39:32.046Z,98557.00
2023-01-27T02:41:59.092Z,98565.00
2023-01-27T02:44:33.103Z,98567.00
2023-01-27T02:47:07.041Z,98553.00
2023-01-27T02:49:34.004Z,98567.00
2023-01-27T02:52:01.087Z,98569.00
2023-01-27T02:54:35.065Z,98552.00
2023-01-27T02:57:02.158Z,98541.00
2023-01-27T02:59:36.013Z,98553.00
2023-01-27T03:02:10.095Z,98568.00
2023-01-27T03:04:37.187Z,98558.00
2023-01-27T03:07:11.042Z,98549.00
2023-01-27T03:09:38.039Z,98557.00
2023-01-27T03:12:12.142Z,98522.00
2023-01-27T03:14:39.153Z,98549.00
2023-01-27T03:17:13.036Z,98555.00
2023-01-27T03:19:40.029Z,98558.00
2023-01-27T03:22:14.058Z,98555.00
2023-01-27T03:24:48.076Z,98562.00
2023-01-27T03:27:22.081Z,98541.00
2023-01-27T03:29:56.092Z,98547.00
2023-01-27T03:32:27.661Z,98539.00
2023-01-27T03:35:02.028Z,98541.00
2023-01-27T03:37:29.238Z,98547.00
2023-01-27T03:39:56.413Z,98553.00
2023-01-27T03:42:30.028Z,98539.00
2023-01-27T03:44:57.107Z,98515.00
2023-01-27T03:47:31.120Z,98542.00
2023-01-27T03:49:58.150Z,98543.00
2023-01-27T03:52:32.011Z,98542.00
2023-01-27T03:54:59.025Z,98546.00
2023-01-27T03:57:26.230Z,98522.00
2023-01-27T04:00:00.058Z,98538.00
2023-01-27T04:02:27.083Z,98522.00
2023-01-27T04:05:01.060Z,98544.00
2023-01-27T04:07:28.007Z,98547.00
2023-01-27T04:10:01.030Z,98520.00
2023-01-27T04:12:34.062Z,98543.00
2023-01-27T04:15:01.131Z,98543.00
2023-01-27T04:17:35.105Z,98548.00
2023-01-27T04:20:02.931Z,98491.00
2023-01-27T04:22:36.140Z,98517.00
2023-01-27T04:25:03.186Z,98503.00
2023-01-27T04:27:37.120Z,98531.00
2023-01-27T04:30:04.733Z,98526.00
2023-01-27T04:32:38.105Z,98535.00
2023-01-27T04:35:05.510Z,98546.00
2023-01-27T04:37:39.232Z,98543.00
2023-01-27T04:40:14.077Z,98560.00
2023-01-27T04:42:48.058Z,98545.00
2023-01-27T04:45:22.043Z,98534.00
2023-01-27T04:47:49.055Z,98558.00
2023-01-27T04:50:16.508Z,98554.00
2023-01-27T04:52:50.116Z,98563.00
2023-01-27T04:55:17.183Z,98552.00
2023-01-27T04:57:51.100Z,98553.00
2023-01-27T05:00:18.780Z,98568.00
2023-01-27T05:02:52.124Z,98572.00
2023-01-27T05:05:19.162Z,98569.00
2023-01-27T05:07:53.125Z,98571.00
2023-01-27T05:10:20.224Z,98570.00
2023-01-27T05:12:54.047Z,98575.00
2023-01-27T05:15:27.227Z,98560.00
2023-01-27T05:17:54.693Z,98572.00
2023-01-27T05:20:28.176Z,98579.00
2023-01-27T05:23:02.163Z,98589.00
2023-01-27T05:25:29.191Z,98580.00
2023-01-27T05:28:03.043Z,98584.00
2023-01-27T05:30:36.071Z,98596.00
2023-01-27T05:33:03.788Z,98575.00
2023-01-27T05:35:33.506Z,98606.00
2023-01-27T05:38:07.104Z,98594.00
2023-01-27T05:40:41.123Z,98601.00
2023-01-27T05:43:08.071Z,98605.00
2023-01-27T05:45:42.079Z,98601.00
2023-01-27T05:48:16.103Z,98587.00
2023-01-27T05:50:43.098Z,98594.00
2023-01-27T05:53:17.121Z,98600.00
2023-01-27T05:55:51.100Z,98598.00
2023-01-27T05:58:25.128Z,98607.00
2023-01-27T06:00:52.715Z,98621.00
2023-01-27T06:03:19.761Z,98611.00
2023-01-27T06:06:04.114Z,98610.00
2023-01-27T06:08:31.348Z,98628.00
2023-01-27T06:11:05.095Z,98611.00
2023-01-27T06:13:32.338Z,98624.00
2023-01-27T06:16:06.117Z,98617.00
2023-01-27T06:18:33.171Z,98618.00
2023-01-27T06:21:15.084Z,98630.00
2023-01-27T06:23:48.084Z,98631.00
2023-01-27T06:26:17.028Z,98635.00
2023-01-27T06:28:52.269Z,98627.00
2023-01-27T06:31:21.195Z,98639.00
2023-01-27T06:33:48.256Z,98645.00
2023-01-27T06:36:24.087Z,98636.00
2023-01-27T06:38:51.336Z,98628.00
2023-01-27T06:41:25.117Z,98628.00
2023-01-27T06:43:52.142Z,98637.00
2023-01-27T06:46:26.099Z,98627.00
2023-01-27T06:48:59.176Z,98624.00
2023-01-27T06:51:26.389Z,98650.00
2023-01-27T06:53:53.537Z,98658.00
2023-01-27T06:56:27.101Z,98632.00
2023-01-27T06:58:54.091Z,98647.00
2023-01-27T07:01:27.124Z,98642.00
2023-01-27T07:03:54.239Z,98659.00
2023-01-27T07:06:28.135Z,98665.00
2023-01-27T07:08:59.969Z,98644.00
2023-01-27T07:11:36.212Z,98644.00
2023-01-27T07:14:06.271Z,98661.00
2023-01-27T07:16:33.229Z,98651.00
2023-01-27T07:19:07.165Z,98649.00
2023-01-27T07:21:41.123Z,98671.00
2023-01-27T07:24:15.177Z,98658.00
2023-01-27T07:26:49.349Z,98675.00
2023-01-27T07:29:16.404Z,98660.00
2023-01-27T07:31:50.229Z,98661.00
2023-01-27T07:34:17.293Z,98684.00
2023-01-27T07:36:51.122Z,98683.00
2023-01-27T07:39:25.222Z,98682.00
2023-01-27T07:41:52.462Z,98691.00
2023-01-27T07:44:26.226Z,98694.00
2023-01-27T07:46:53.951Z,98684.00
2023-01-27T07:49:27.663Z,98669.00
2023-01-27T07:51:54.642Z,98689.00
2023-01-27T07:54:28.193Z,98687.00
2023-01-27T07:56:55.157Z,98703.00
2023-01-27T07:59:28.207Z,98705.00
2023-01-27T08:01:55.274Z,98686.00
2023-01-27T08:04:30.387Z,98707.00
2023-01-27T08:06:58.595Z,98670.00
2023-01-27T08:09:32.166Z,98692.00
2023-01-27T08:12:05.232Z,98703.00
2023-01-27T08:14:32.289Z,98695.00
2023-01-27T08:17:06.180Z,98711.00
2023-01-27T08:19:40.165Z,98722.00
2023-01-27T08:22:07.238Z,98718.00
2023-01-27T08:24:41.185Z,98707.00
2023-01-27T08:27:08.406Z,98708.00
2023-01-27T08:29:42.155Z,98713.00
2023-01-27T08:32:09.360Z,98728.00
2023-01-27T08:34:44.171Z,98736.00
2023-01-27T08:37:11.281Z,98735.00
2023-01-27T08:39:45.138Z,98735.00
2023-01-27T08:42:12.722Z,98758.00
2023-01-27T08:44:46.235Z,98756.00
2023-01-27T08:47:13.334Z,98748.00
2023-01-27T08:49:40.343Z,98748.00
2023-01-27T08:52:14.160Z,98738.00
2023-01-27T08:54:48.152Z,98763.00
2023-01-27T08:57:15.141Z,98762.00
2023-01-27T08:59:49.169Z,98777.00
2023-01-27T09:02:16.250Z,98750.00
2023-01-27T09:04:50.355Z,98754.00
2023-01-27T09:07:18.335Z,98766.00
2023-01-27T09:10:07.698Z,98750.00
2023-01-27T09:12:41.022Z,98768.00
2023-01-27T09:15:15.250Z,98765.00
2023-01-27T09:17:42.403Z,98754.00
2023-01-27T09:20:17.384Z,98766.00
2023-01-27T09:22:44.834Z,98781.00
2023-01-27T09:25:16.660Z,98768.00
2023-01-27T09:27:51.272Z,98774.00
2023-01-27T09:30:18.465Z,98765.00
2023-01-27T09:32:45.477Z,98773.00
2023-01-27T09:35:19.230Z,98787.00
2023-01-27T09:37:54.400Z,98798.00
2023-01-27T09:40:39.182Z,98788.00
2023-01-27T09:43:43.546Z,98791.00
2023-01-27T09:46:25.315Z,98794.00
2023-01-27T09:49:37.235Z,98802.00
2023-01-27T09:52:52.262Z,98764.00
2023-01-27T09:55:28.885Z,98800.00
2023-01-27T09:58:27.230Z,98803.00
2023-01-27T10:01:22.178Z,98816.00
2023-01-27T10:04:13.418Z,98792.00
2023-01-27T10:07:05.684Z,98811.00
2023-01-27T10:10:13.450Z,98801.00
2023-01-27T10:13:25.201Z,98801.00
2023-01-27T10:16:45.538Z,98803.00
2023-01-27T10:19:54.238Z,98796.00
2023-01-27T10:22:42.394Z,98806.00
2023-01-27T10:25:30.267Z,98812.00
2023-01-27T10:27:59.200Z,98793.00
2023-01-27T10:30:35.234Z,98775.00
2023-01-27T10:33:18.536Z,98797.00
2023-01-27T10:36:00.222Z,98798.00
2023-01-27T10:38:59.368Z,98794.00
2023-01-27T10:42:06.192Z,98801.00
2023-01-27T10:45:00.667Z,98791.00
2023-01-27T10:48:27.205Z,98809.00
2023-01-27T10:51:41.174Z,98800.00
2023-01-27T10:54:32.168Z,98793.00
2023-01-27T10:57:21.169Z,98787.00
2023-01-27T11:00:23.003Z,98792.00
2023-01-27T11:02:51.235Z,98776.00
2023-01-27T11:05:29.085Z,98772.00
2023-01-27T11:08:24.339Z,98793.00
2023-01-27T11:10:56.703Z,98772.00
2023-01-27T11:13:30.258Z,98787.00
2023-01-27T11:15:57.992Z,98768.00
2023-01-27T11:18:27.870Z,98762.00
2023-01-27T11:21:06.337Z,98764.00
2023-01-27T11:23:45.183Z,98754.00
2023-01-27T11:26:50.265Z,98777.00
2023-01-27T11:29:38.289Z,98762.00
2023-01-27T11:33:01.227Z,98765.00
2023-01-27T11:35:35.264Z,98766.00
2023-01-27T11:38:15.250Z,98763.00
2023-01-27T11:40:49.280Z,98740.00
2023-01-27T11:43:25.008Z,98762.00
2023-01-27T11:46:03.300Z,98734.00
2023-01-27T11:48:57.292Z,98744.00
2023-01-27T11:51:33.267Z,98728.00
2023-01-27T11:54:23.907Z,98735.00
2023-01-27T11:56:57.251Z,98735.00
2023-01-27T11:59:27.632Z,98721.00
2023-01-27T12:02:09.247Z,98729.00
2023-01-27T12:04:45.497Z,98718.00
2023-01-27T12:07:34.258Z,98714.00
2023-01-27T12:10:01.527Z,98698.00
2023-01-27T12:12:35.276Z,98690.00
2023-01-27T12:15:03.207Z,98693.00
2023-01-27T12:17:47.248Z,98692.00
2023-01-27T12:20:41.326Z,98682.00
2023-01-27T12:23:31.428Z,98695.00
2023-01-27T12:26:12.262Z,98688.00
2023-01-27T12:28:58.269Z,98682.00
2023-01-27T12:31:28.866Z,98660.00
2023-01-27T12:34:19.236Z,98675.00
2023-01-27T12:36:46.292Z,98671.00
2023-01-27T12:39:56.323Z,98682.00
2023-01-27T12:42:50.627Z,98680.00
2023-01-27T12:45:36.308Z,98682.00
2023-01-27T12:48:18.738Z,98677.00
2023-01-27T12:50:58.320Z,98683.00
2023-01-27T12:53:33.395Z,98679.00
2023-01-27T12:56:09.735Z,98678.00
2023-01-27T12:58:47.389Z,98654.00
2023-01-27T13:01:20.473Z,98670.00
2023-01-27T13:04:05.344Z,98670.00
2023-01-27T13:06:39.130Z,98643.00
2023-01-27T13:09:12.331Z,98665.00
2023-01-27T13:11:39.923Z,98654.00
2023-01-27T13:14:23.352Z,98673.00
2023-01-27T13:16:54.879Z,98669.00
2023-01-27T13:19:51.278Z,98649.00
2023-01-27T13:22:19.194Z,98664.00
2023-01-27T13:24:53.349Z,98656.00
2023-01-27T13:27:21.305Z,98661.00
2023-01-27T13:30:12.637Z,98657.00
2023-01-27T13:32:39.812Z,98663.00
2023-01-27T13:35:44.341Z,98654.00
2023-01-27T13:38:36.835Z,98673.00
2023-01-27T13:41:14.321Z,98681.00
2023-01-27T13:43:41.434Z,98659.00
2023-01-27T13:46:27.401Z,98680.00
2023-01-27T13:49:38.292Z,98665.00
2023-01-27T13:52:12.272Z,98675.00
2023-01-27T13:54:39.615Z,98666.00
2023-01-27T13:57:57.318Z,98671.00
2023-01-27T14:00:43.461Z,98652.00
2023-01-27T14:03:43.297Z,98671.00
2023-01-27T14:06:46.347Z,98673.00
2023-01-27T14:09:39.813Z,98666.00
2023-01-27T14:12:49.278Z,98678.00
2023-01-27T14:15:31.093Z,98682.00
2023-01-27T14:18:21.353Z,98669.00
2023-01-27T14:21:09.319Z,98682.00
2023-01-27T14:24:22.598Z,98690.00
2023-01-27T14:26:56.388Z,98702.00
2023-01-27T14:29:46.698Z,98697.00
2023-01-27T14:32:38.330Z,98697.00
2023-01-27T14:35:26.997Z,98700.00
2023-01-27T14:38:24.320Z,98693.00
2023-01-27T14:41:05.995Z,98694.00
2023-01-27T14:43:52.699Z,98701.00
2023-01-27T14:46:50.605Z,98692.00
2023-01-27T14:49:42.359Z,98698.00
2023-01-27T14:52:37.213Z,98700.00
2023-01-27T14:55:19.366Z,98700.00
2023-01-27T14:58:16.436Z,98705.00
2023-01-27T15:01:14.354Z,98695.00
2023-01-27T15:04:19.250Z,98701.00
2023-01-27T15:07:12.345Z,98701.00
2023-01-27T15:10:08.356Z,98703.00
2023-01-27T15:13:00.351Z,98697.00
2023-01-27T15:15:57.765Z,98696.00
2023-01-27T15:19:08.318Z,98691.00
2023-01-27T15:21:44.595Z,98703.00
2023-01-27T15:24:50.313Z,98690.00
2023-01-27T15:27:17.328Z,98687.00
2023-01-27T15:29:44.324Z,98674.00
2023-01-27T15:32:24.389Z,98693.00
2023-01-27T15:34:53.860Z,98694.00
2023-01-27T15:37:29.975Z,98686.00
2023-01-27T15:40:16.936Z,98684.00
2023-01-27T15:42:58.052Z,98683.00
2023-01-27T15:45:36.356Z,98687.00
2023-01-27T15:48:21.436Z,98677.00
2023-01-27T15:50:59.703Z,98671.00
2023-01-27T15:53:45.376Z,98665.00
2023-01-27T15:56:12.603Z,98686.00
2023-01-27T15:59:03.449Z,98674.00
2023-01-27T16:01:39.343Z,98686.00
2023-01-27T16:04:21.505Z,98696.00
2023-01-27T16:06:56.798Z,98683.00
2023-01-27T16:09:48.536Z,98689.00
2023-01-27T16:12:24.686Z,98700.00
2023-01-27T16:15:41.930Z,98691.00
2023-01-27T16:18:08.941Z,98697.00
2023-01-27T16:20:54.521Z,98695.00
2023-01-27T16:23:58.821Z,98710.00
2023-01-27T16:26:43.452Z,98688.00
2023-01-27T16:29:23.608Z,98706.00
2023-01-27T16:32:00.317Z,98701.00
2023-01-27T16:34:42.236Z,98692.00
2023-01-27T16:37:24.485Z,98706.00
2023-01-27T16:40:23.220Z,98660.00
2023-01-27T16:42:59.444Z,98693.00
2023-01-27T16:45:29.617Z,98665.00
2023-01-27T16:48:11.434Z,98696.00
2023-01-27T16:50:41.134Z,98690.00
2023-01-27T16:53:27.686Z,98707.00
2023-01-27T16:56:03.957Z,98685.00
2023-01-27T16:58:46.614Z,98696.00
2023-01-27T17:01:29.268Z,98704.00
2023-01-27T17:04:19.042Z,98705.00
2023-01-27T17:06:48.206Z,98674.00
2023-01-27T17:09:38.468Z,98719.00
2023-01-27T17:12:05.862Z,98723.00
2023-01-27T17:14:37.106Z,98714.00
2023-01-27T17:17:12.503Z,98716.00
2023-01-27T17:19:46.400Z,98739.00
2023-01-27T17:22:31.324Z,98725.00
2023-01-27T17:25:10.452Z,98720.00
2023-01-27T17:27:39.441Z,98744.00
2023-01-27T17:30:29.465Z,98722.00
2023-01-27T17:32:58.511Z,98719.00
2023-01-27T17:35:51.446Z,98745.00
2023-01-27T17:38:45.521Z,98754.00
2023-01-27T17:41:37.419Z,98744.00
2023-01-27T17:44:13.459Z,98728.00
2023-01-27T17:46:49.464Z,98729.00
2023-01-27T17:49:17.725Z,98721.00
2023-01-27T17:51:56.454Z,98739.00
2023-01-27T17:54:34.295Z,98760.00
2023-01-27T17:57:13.395Z,98770.00
2023-01-27T17:59:46.894Z,98757.00
2023-01-27T18:02:49.542Z,98769.00
2023-01-27T18:05:22.589Z,98764.00
2023-01-27T18:07:56.480Z,98766.00
2023-01-27T18:10:42.385Z,98781.00
2023-01-27T18:13:18.292Z,98793.00
2023-01-27T18:16:24.541Z,98767.00
2023-01-27T18:18:51.638Z,98796.00
2023-01-27T18:21:32.455Z,98796.00
2023-01-27T18:23:59.602Z,98783.00
2023-01-27T18:26:30.225Z,98805.00
2023-01-27T18:29:07.439Z,98804.00
2023-01-27T18:31:45.156Z,98812.00
2023-01-27T18:34:39.470Z,98805.00
2023-01-27T18:37:31.512Z,98796.00
2023-01-27T18:40:06.499Z,98807.00
2023-01-27T18:42:40.450Z,98802.00
2023-01-27T18:45:12.292Z,98824.00
2023-01-27T18:47:46.454Z,98830.00
2023-01-27T18:50:20.250Z,98821.00
2023-01-27T18:52:54.458Z,98804.00
2023-01-27T18:55:29.426Z,98800.00
2023-01-27T18:58:04.464Z,98836.00
2023-01-27T19:00:48.556Z,98837.00
2023-01-27T19:03:24.546Z,98807.00
2023-01-27T19:05:51.592Z,98828.00
2023-01-27T19:08:29.469Z,98798.00
2023-01-27T19:10:56.471Z,98830.00
2023-01-27T19:13:30.528Z,98825.00
2023-01-27T19:15:57.675Z,98815.00
2023-01-27T19:18:39.440Z,98838.00
2023-01-27T19:21:06.724Z,98834.00
2023-01-27T19:23:40.448Z,98844.00
2023-01-27T19:26:14.480Z,98848.00
2023-01-27T19:28:47.450Z,98848.00
2023-01-27T19:31:14.575Z,98844.00
2023-01-27T19:33:48.442Z,98832.00
2023-01-27T19:36:38.436Z,98833.00
2023-01-27T19:39:08.308Z,98857.00
2023-01-27T19:41:41.561Z,98854.00
2023-01-27T19:44:08.610Z,98825.00
2023-01-27T19:46:42.464Z,98826.00
2023-01-27T19:49:23.463Z,98860.00
2023-01-27T19:51:50.433Z,98874.00
2023-01-27T19:54:23.443Z,98855.00
2023-01-27T19:56:50.353Z,98865.00
2023-01-27T19:59:23.453Z,98877.00
2023-01-27T20:01:57.513Z,98874.00
2023-01-27T20:04:24.581Z,98859.00
2023-01-27T20:06:51.514Z,98848.00
2023-01-27T20:09:24.458Z,98871.00
2023-01-27T20:11:51.509Z,98854.00
2023-01-27T20:14:25.441Z,98853.00
2023-01-27T20:16:52.517Z,98887.00
2023-01-27T20:19:26.514Z,98863.00
2023-01-27T20:22:00.508Z,98852.00
2023-01-27T20:24:27.720Z,98881.00
2023-01-27T20:27:01.480Z,98891.00
2023-01-27T20:29:34.518Z,98839.00
2023-01-27T20:32:08.464Z,98868.00
2023-01-27T20:34:35.461Z,98889.00
2023-01-27T20:37:02.495Z,98893.00
2023-01-27T20:39:35.532Z,98894.00
2023-01-27T20:42:02.417Z,98898.00
2023-01-27T20:44:35.556Z,98897.00
2023-01-27T20:47:02.537Z,98902.00
2023-01-27T20:49:35.466Z,98901.00
2023-01-27T20:52:08.504Z,98864.00
2023-01-27T20:54:35.468Z,98888.00
2023-01-27T20:57:08.732Z,98865.00
2023-01-27T20:59:35.716Z,98879.00
2023-01-27T21:02:09.520Z,98870.00
2023-01-27T21:04:36.584Z,98915.00
2023-01-27T21:07:10.542Z,98916.00
2023-01-27T21:09:37.503Z,98891.00
2023-01-27T21:12:04.588Z,98913.00
2023-01-27T21:14:40.031Z,98887.00
2023-01-27T21:17:07.128Z,98907.00
2023-01-27T21:19:40.599Z,98908.00
2023-01-27T21:22:07.522Z,98909.00
2023-01-27T21:24:34.521Z,98904.00
2023-01-27T21:27:08.459Z,98908.00
2023-01-27T21:29:35.372Z,98931.00
2023-01-27T21:32:08.469Z,98920.00
2023-01-27T21:34:35.377Z,98919.00
2023-01-27T21:37:08.575Z,98893.00
2023-01-27T21:39:35.561Z,98928.00
2023-01-27T21:42:09.557Z,98902.00
2023-01-27T21:44:36.636Z,98881.00
2023-01-27T21:47:10.671Z,98920.00
2023-01-27T21:49:39.568Z,98912.00
2023-01-27T21:52:13.547Z,98940.00
2023-01-27T21:54:40.565Z,98909.00
2023-01-27T21:57:07.479Z,98932.00
2023-01-27T21:59:40.541Z,98947.00
2023-01-27T22:02:18.503Z,98916.00
2023-01-27T22:04:46.068Z,98938.00
2023-01-27T22:07:22.485Z,98946.00
2023-01-27T22:09:49.402Z,98934.00
2023-01-27T22:12:16.741Z,98904.00
2023-01-27T22:14:50.615Z,98922.00
2023-01-27T22:17:19.873Z,98930.00
2023-01-27T22:19:53.551Z,98932.00
2023-01-27T22:22:20.504Z,98929.00
2023-01-27T22:24:47.492Z,98928.00
2023-01-27T22:27:20.513Z,98931.00
2023-01-27T22:29:47.485Z,98940.00
2023-01-27T22:32:20.573Z,98930.00
2023-01-27T22:34:53.551Z,98955.00
2023-01-27T22:37:20.424Z,98939.00
2023-01-27T22:39:53.489Z,98941.00
2023-01-27T22:42:20.356Z,98936.00
2023-01-27T22:44:47.272Z,98953.00
2023-01-27T22:47:20.541Z,98945.00
2023-01-27T22:49:53.528Z,98940.00
2023-01-27T22:52:26.546Z,98946.00
2023-01-27T22:54:53.469Z,98927.00
2023-01-27T22:57:26.508Z,98935.00
2023-01-27T22:59:53.438Z,98936.00
2023-01-27T23:02:26.678Z,98935.00
2023-01-27T23:04:54.279Z,98936.00
2023-01-27T23:07:27.517Z,98961.00
2023-01-27T23:09:54.373Z,98950.00
2023-01-27T23:12:27.569Z,98968.00
2023-01-27T23:14:54.586Z,98964.00
2023-01-27T23:17:21.588Z,98965.00
2023-01-27T23:19:55.553Z,98953.00
2023-01-27T23:22:22.509Z,98966.00
2023-01-27T23:24:49.682Z,98964.00
2023-01-27T23:27:23.556Z,98966.00
2023-01-27T23:29:57.604Z,98955.00
2023-01-27T23:32:24.598Z,98932.00
2023-01-27T23:34:51.612Z,98964.00
2023-01-27T23:37:25.567Z,98930.00
2023-01-27T23:39:59.402Z,98967.00
2023-01-27T23:42:32.552Z,98951.00
2023-01-27T23:44:59.527Z,98943.00
2023-01-27T23:47:33.601Z,98959.00
2023-01-27T23:50:00.784Z,98943.00
2023-01-27T23:52:34.577Z,98964.00
2023-01-27T23:55:01.741Z,98972.00
2023-01-27T23:57:35.578Z,98956.00
